Time,TemperatureF,DewpointF,PressureIn,WindDirection,WindDirectionDegrees,WindSpeedMPH,WindSpeedGustMPH,Humidity,HourlyPrecipIn,Conditions,Clouds,dailyrainin,SoftwareType,DateUTC
2013-10-22 00:10:00,46.7,42.0,29.98,West,265,0.0,0.0,83,0.00,,,0.00,weatherlink.com 1.10,2013-10-22 04:10:00,
2013-10-22 00:25:00,45.9,42.0,29.98,West,265,0.0,0.0,85,0.00,,,0.00,weatherlink.com 1.10,2013-10-22 04:25:00,
2013-10-22 00:40:00,45.3,41.0,29.98,West,265,0.0,0.0,86,0.00,,,0.00,weatherlink.com 1.10,2013-10-22 04:40:00,
2013-10-22 00:55:00,44.7,41.0,29.97,West,265,0.0,0.0,87,0.00,,,0.00,weatherlink.com 1.10,2013-10-22 04:55:00,
2013-10-22 01:10:00,44.4,41.0,29.98,West,265,0.0,0.0,89,0.00,,,0.00,weatherlink.com 1.10,2013-10-22 05:10:00,
2013-10-22 01:25:00,44.0,41.0,29.97,West,265,0.0,0.0,89,0.00,,,0.00,weatherlink.com 1.10,2013-10-22 05:25:00,
2013-10-22 01:40:00,43.7,41.0,29.96,West,265,0.0,0.0,90,0.00,,,0.00,weatherlink.com 1.10,2013-10-22 05:40:00,
2013-10-22 01:55:00,43.8,41.0,29.96,West,265,0.0,0.0,91,0.00,,,0.00,weatherlink.com 1.10,2013-10-22 05:55:00,
2013-10-22 02:10:00,43.5,41.0,29.95,West,265,0.0,0.0,91,0.00,,,0.00,weatherlink.com 1.10,2013-10-22 06:10:00,
2013-10-22 02:25:00,42.9,41.0,29.95,West,265,0.0,0.0,91,0.00,,,0.00,weatherlink.com 1.10,2013-10-22 06:25:00,
2013-10-22 02:40:00,42.5,40.0,29.95,West,265,0.0,0.0,91,0.00,,,0.00,weatherlink.com 1.10,2013-10-22 06:40:00,
2013-10-22 02:55:00,42.1,40.0,29.95,West,265,0.0,0.0,91,0.00,,,0.00,weatherlink.com 1.10,2013-10-22 06:55:00,
2013-10-22 03:10:00,41.5,39.0,29.94,West,265,0.0,0.0,92,0.00,,,0.00,weatherlink.com 1.10,2013-10-22 07:10:00,
2013-10-22 03:25:00,41.7,40.0,29.94,West,265,0.0,0.0,93,0.00,,,0.00,weatherlink.com 1.10,2013-10-22 07:25:00,
2013-10-22 03:40:00,41.6,40.0,29.93,West,265,0.0,0.0,92,0.00,,,0.00,weatherlink.com 1.10,2013-10-22 07:40:00,
2013-10-22 03:55:00,41.2,39.0,29.93,West,265,0.0,0.0,93,0.00,,,0.00,weatherlink.com 1.10,2013-10-22 07:55:00,
2013-10-22 04:10:00,41.4,40.0,29.93,West,265,0.0,0.0,93,0.00,,,0.00,weatherlink.com 1.10,2013-10-22 08:10:00,
2013-10-22 04:25:00,41.1,39.0,29.92,West,265,0.0,0.0,93,0.00,,,0.00,weatherlink.com 1.10,2013-10-22 08:25:00,
2013-10-22 04:40:00,40.7,39.0,29.92,West,265,0.0,0.0,93,0.00,,,0.00,weatherlink.com 1.10,2013-10-22 08:40:00,
2013-10-22 04:55:00,41.0,39.0,29.92,West,265,0.0,0.0,94,0.00,,,0.00,weatherlink.com 1.10,2013-10-22 08:55:00,
2013-10-22 05:10:00,40.5,39.0,29.92,West,265,0.0,0.0,93,0.00,,,0.00,weatherlink.com 1.10,2013-10-22 09:10:00,
2013-10-22 05:26:00,40.2,39.0,29.91,West,265,0.0,0.0,94,0.00,,,0.00,weatherlink.com 1.10,2013-10-22 09:26:00,
2013-10-22 05:41:00,40.1,39.0,29.91,West,265,0.0,0.0,94,0.00,,,0.00,weatherlink.com 1.10,2013-10-22 09:41:00,
2013-10-22 05:56:00,40.0,39.0,29.90,West,265,0.0,0.0,94,0.00,,,0.00,weatherlink.com 1.10,2013-10-22 09:56:00,
2013-10-22 06:11:00,40.0,39.0,29.90,West,265,0.0,0.0,94,0.00,,,0.00,weatherlink.com 1.10,2013-10-22 10:11:00,
2013-10-22 06:26:00,39.9,38.0,29.90,West,265,0.0,0.0,94,0.00,,,0.00,weatherlink.com 1.10,2013-10-22 10:26:00,
2013-10-22 06:41:00,39.7,38.0,29.89,West,265,0.0,0.0,94,0.00,,,0.00,weatherlink.com 1.10,2013-10-22 10:41:00,
2013-10-22 06:56:00,39.7,38.0,29.88,West,265,0.0,0.0,94,0.00,,,0.00,weatherlink.com 1.10,2013-10-22 10:56:00,
2013-10-22 07:11:00,39.9,39.0,29.88,West,265,0.0,0.0,95,0.00,,,0.00,weatherlink.com 1.10,2013-10-22 11:11:00,
2013-10-22 07:26:00,40.0,39.0,29.88,West,265,0.0,0.0,95,0.00,,,0.00,weatherlink.com 1.10,2013-10-22 11:26:00,
2013-10-22 07:41:00,40.4,39.0,29.87,West,265,0.0,0.0,95,0.00,,,0.00,weatherlink.com 1.10,2013-10-22 11:41:00,
2013-10-22 07:56:00,41.2,40.0,29.86,West,265,0.0,0.0,95,0.00,,,0.00,weatherlink.com 1.10,2013-10-22 11:56:00,
2013-10-22 08:11:00,42.5,42.0,29.86,West,265,0.0,0.0,96,0.00,,,0.00,weatherlink.com 1.10,2013-10-22 12:11:00,
2013-10-22 08:26:00,44.7,44.0,29.87,North,351,0.0,0.0,96,0.00,,,0.00,weatherlink.com 1.10,2013-10-22 12:26:00,
2013-10-22 08:41:00,47.8,47.0,29.86,North,351,0.0,0.0,96,0.00,,,0.00,weatherlink.com 1.10,2013-10-22 12:41:00,
2013-10-22 08:56:00,51.4,50.0,29.86,North,355,0.0,0.0,96,0.00,,,0.00,weatherlink.com 1.10,2013-10-22 12:56:00,
2013-10-22 09:11:00,53.7,51.0,29.86,NNW,341,0.0,2.0,89,0.00,,,0.00,weatherlink.com 1.10,2013-10-22 13:11:00,
2013-10-22 09:26:00,56.4,52.0,29.85,ENE,61,0.0,3.0,84,0.00,,,0.00,weatherlink.com 1.10,2013-10-22 13:26:00,
2013-10-22 09:41:00,58.9,52.0,29.84,SE,137,1.0,4.0,77,0.00,,,0.00,weatherlink.com 1.10,2013-10-22 13:41:00,
2013-10-22 09:56:00,59.7,52.0,29.83,WNW,284,2.0,9.0,75,0.00,,,0.00,weatherlink.com 1.10,2013-10-22 13:56:00,
2013-10-22 10:26:00,62.0,52.0,29.82,NW,307,5.0,7.0,71,0.00,,,0.00,weatherlink.com 1.10,2013-10-22 14:26:00,
2013-10-22 10:41:00,62.4,52.0,29.80,SW,223,1.0,8.0,70,0.00,,,0.00,weatherlink.com 1.10,2013-10-22 14:41:00,
2013-10-22 10:56:00,62.5,52.0,29.80,SSW,203,1.0,10.0,68,0.00,,,0.00,weatherlink.com 1.10,2013-10-22 14:56:00,
2013-10-22 11:11:00,62.6,51.0,29.79,SSW,196,2.0,11.0,66,0.00,,,0.00,weatherlink.com 1.10,2013-10-22 15:11:00,
2013-10-22 11:27:00,64.4,51.0,29.78,SW,215,2.0,8.0,63,0.00,,,0.00,weatherlink.com 1.10,2013-10-22 15:27:00,
2013-10-22 11:42:00,65.1,51.0,29.78,WNW,284,2.0,10.0,61,0.00,,,0.00,weatherlink.com 1.10,2013-10-22 15:42:00,
2013-10-22 11:57:00,66.0,51.0,29.77,SE,146,3.0,10.0,58,0.00,,,0.00,weatherlink.com 1.10,2013-10-22 15:57:00,
2013-10-22 12:12:00,67.1,50.0,29.77,ESE,115,0.0,8.0,55,0.00,,,0.00,weatherlink.com 1.10,2013-10-22 16:12:00,
2013-10-22 12:27:00,66.5,49.0,29.76,SW,230,0.0,15.0,53,0.00,,,0.00,weatherlink.com 1.10,2013-10-22 16:27:00,
2013-10-22 12:42:00,66.3,49.0,29.75,ESE,116,0.0,8.0,54,0.00,,,0.00,weatherlink.com 1.10,2013-10-22 16:42:00,
2013-10-22 12:58:00,66.4,48.0,29.74,SE,136,1.0,8.0,52,0.00,,,0.00,weatherlink.com 1.10,2013-10-22 16:58:00,
2013-10-22 13:12:00,66.9,48.0,29.73,SW,230,2.0,10.0,50,0.00,,,0.00,weatherlink.com 1.10,2013-10-22 17:12:00,
2013-10-22 13:27:00,67.3,48.0,29.73,SW,226,7.0,8.0,51,0.00,,,0.00,weatherlink.com 1.10,2013-10-22 17:27:00,
2013-10-22 13:42:00,68.1,48.0,29.72,SSW,213,3.0,8.0,49,0.00,,,0.00,weatherlink.com 1.10,2013-10-22 17:42:00,
2013-10-22 13:57:00,67.1,48.0,29.72,ENE,57,0.0,9.0,51,0.00,,,0.00,weatherlink.com 1.10,2013-10-22 17:57:00,
2013-10-22 14:12:00,66.4,49.0,29.71,West,267,1.0,7.0,53,0.00,,,0.00,weatherlink.com 1.10,2013-10-22 18:12:00,
2013-10-22 14:27:00,66.3,49.0,29.71,SW,218,2.0,7.0,54,0.00,,,0.00,weatherlink.com 1.10,2013-10-22 18:27:00,
2013-10-22 14:42:00,66.2,49.0,29.70,WSW,240,2.0,4.0,54,0.00,,,0.00,weatherlink.com 1.10,2013-10-22 18:42:00,
2013-10-22 14:57:00,65.7,49.0,29.71,SW,229,2.0,8.0,55,0.00,,,0.00,weatherlink.com 1.10,2013-10-22 18:57:00,
2013-10-22 15:12:00,65.3,49.0,29.70,WSW,256,2.0,7.0,55,0.00,,,0.00,weatherlink.com 1.10,2013-10-22 19:12:00,
2013-10-22 15:27:00,65.3,49.0,29.70,West,263,2.0,5.0,55,0.00,,,0.00,weatherlink.com 1.10,2013-10-22 19:27:00,
2013-10-22 15:42:00,65.4,49.0,29.70,West,267,2.0,3.0,55,0.00,,,0.00,weatherlink.com 1.10,2013-10-22 19:42:00,
2013-10-22 15:57:00,65.3,48.0,29.70,WNW,290,0.0,7.0,53,0.00,,,0.00,weatherlink.com 1.10,2013-10-22 19:57:00,
2013-10-22 16:12:00,65.0,47.0,29.70,WSW,245,0.0,8.0,53,0.00,,,0.00,weatherlink.com 1.10,2013-10-22 20:12:00,
2013-10-22 16:27:00,64.6,47.0,29.70,SW,221,2.0,7.0,54,0.00,,,0.00,weatherlink.com 1.10,2013-10-22 20:27:00,
2013-10-22 16:57:00,64.0,47.0,29.70,NW,315,1.0,3.0,55,0.00,,,0.00,weatherlink.com 1.10,2013-10-22 20:57:00,
2013-10-22 17:12:00,63.6,47.0,29.70,SW,225,1.0,4.0,56,0.00,,,0.00,weatherlink.com 1.10,2013-10-22 21:12:00,
2013-10-22 17:27:00,62.9,48.0,29.70,SW,225,0.0,5.0,58,0.00,,,0.00,weatherlink.com 1.10,2013-10-22 21:27:00,
2013-10-22 17:42:00,61.5,49.0,29.70,SW,226,0.0,3.0,64,0.00,,,0.00,weatherlink.com 1.10,2013-10-22 21:42:00,
2013-10-22 17:57:00,60.6,49.0,29.69,SW,222,0.0,1.0,66,0.00,,,0.00,weatherlink.com 1.10,2013-10-22 21:57:00,
2013-10-22 18:12:00,60.1,49.0,29.70,WSW,240,0.0,2.0,68,0.00,,,0.00,weatherlink.com 1.10,2013-10-22 22:12:00,
2013-10-22 18:27:00,59.7,49.0,29.70,SW,232,0.0,1.0,69,0.00,,,0.00,weatherlink.com 1.10,2013-10-22 22:27:00,
2013-10-22 18:42:00,59.1,50.0,29.71,WSW,237,0.0,2.0,71,0.00,,,0.00,weatherlink.com 1.10,2013-10-22 22:42:00,
2013-10-22 18:57:00,59.0,50.0,29.71,SW,234,3.0,6.0,71,0.00,,,0.00,weatherlink.com 1.10,2013-10-22 22:57:00,
2013-10-22 19:12:00,58.5,49.0,29.72,SW,229,0.0,3.0,72,0.00,,,0.00,weatherlink.com 1.10,2013-10-22 23:12:00,
2013-10-22 19:27:00,57.9,49.0,29.72,South,178,0.0,2.0,72,0.00,,,0.00,weatherlink.com 1.10,2013-10-22 23:27:00,
2013-10-22 19:42:00,57.0,48.0,29.73,WNW,299,1.0,5.0,72,0.00,,,0.00,weatherlink.com 1.10,2013-10-22 23:42:00,
2013-10-22 19:57:00,55.9,46.0,29.73,West,270,1.0,7.0,70,0.00,,,0.00,weatherlink.com 1.10,2013-10-22 23:57:00,
2013-10-22 20:12:00,55.0,44.0,29.73,WSW,257,0.0,4.0,66,0.00,,,0.00,weatherlink.com 1.10,2013-10-23 00:12:00,
2013-10-22 20:27:00,54.3,42.0,29.73,WSW,247,0.0,5.0,64,0.00,,,0.00,weatherlink.com 1.10,2013-10-23 00:27:00,
2013-10-22 20:42:00,53.4,42.0,29.74,West,272,0.0,5.0,65,0.00,,,0.00,weatherlink.com 1.10,2013-10-23 00:42:00,
2013-10-22 20:57:00,52.7,42.0,29.74,NNW,330,0.0,4.0,66,0.00,,,0.00,weatherlink.com 1.10,2013-10-23 00:57:00,
2013-10-22 21:12:00,51.9,41.0,29.75,WSW,248,1.0,3.0,66,0.00,,,0.00,weatherlink.com 1.10,2013-10-23 01:12:00,
2013-10-22 21:27:00,51.5,40.0,29.75,WNW,283,0.0,1.0,66,0.00,,,0.00,weatherlink.com 1.10,2013-10-23 01:27:00,
2013-10-22 21:42:00,50.5,40.0,29.76,SW,234,0.0,1.0,68,0.00,,,0.00,weatherlink.com 1.10,2013-10-23 01:42:00,
2013-10-22 21:57:00,50.1,40.0,29.76,WSW,242,0.0,1.0,69,0.00,,,0.00,weatherlink.com 1.10,2013-10-23 01:57:00,
2013-10-22 22:12:00,49.2,40.0,29.77,WSW,242,0.0,0.0,71,0.00,,,0.00,weatherlink.com 1.10,2013-10-23 02:12:00,
2013-10-22 22:27:00,47.8,40.0,29.77,WSW,242,0.0,0.0,73,0.00,,,0.00,weatherlink.com 1.10,2013-10-23 02:27:00,
2013-10-22 22:42:00,46.5,39.0,29.77,WSW,242,0.0,0.0,75,0.00,,,0.00,weatherlink.com 1.10,2013-10-23 02:42:00,
2013-10-22 22:57:00,45.8,39.0,29.77,WSW,242,0.0,0.0,77,0.00,,,0.00,weatherlink.com 1.10,2013-10-23 02:57:00,
2013-10-22 23:12:00,45.6,39.0,29.77,West,264,0.0,1.0,79,0.00,,,0.00,weatherlink.com 1.10,2013-10-23 03:12:00,
2013-10-22 23:27:00,45.2,39.0,29.78,West,264,0.0,0.0,79,0.00,,,0.00,weatherlink.com 1.10,2013-10-23 03:27:00,
2013-10-22 23:42:00,45.1,39.0,29.77,SW,234,0.0,0.0,79,0.00,,,0.00,weatherlink.com 1.10,2013-10-23 03:42:00,
2013-10-22 23:57:00,44.5,39.0,29.77,SW,235,0.0,0.0,80,0.00,,,0.00,weatherlink.com 1.10,2013-10-23 03:57:00,